Time;durP1;ratioP1;P1;durP2;ratioP2;P2;SDS_P1;SDS_P2;PMS_P1;PMS_P2;Temp;Humidity;BMP_temperature;BMP_pressure;BME280_temperature;BME280_humidity;BME280_pressure;Samples;Min_cycle;Max_cycle;Signal;HPM_P1;HPM_P2
2023/08/14 00:00:09;;;;;;;6.28;5.30;;;18.40;99.90;;;;;;5049139;28;20032;-79
2023/08/14 00:06:24;;;;;;;5.95;5.00;;;17.40;99.90;;;;;;5047636;28;20073;-80
2023/08/14 00:08:53;;;;;;;6.25;5.10;;;18.30;99.90;;;;;;5045977;28;20036;-80
2023/08/14 00:11:26;;;;;;;8.10;5.18;;;18.40;99.90;;;;;;5041161;28;20037;-81
2023/08/14 00:14:01;;;;;;;6.88;5.97;;;18.20;99.90;;;;;;5047283;28;20028;-81
2023/08/14 00:16:27;;;;;;;9.52;6.07;;;18.30;99.90;;;;;;5041009;28;20040;-83
2023/08/14 00:19:04;;;;;;;7.30;5.60;;;18.50;99.90;;;;;;5047278;28;20036;-81
2023/08/14 00:26:26;;;;;;;5.95;5.25;;;18.80;99.90;;;;;;4976720;28;20039;-80
2023/08/14 00:29:22;;;;;;;6.95;6.22;;;18.30;99.90;;;;;;4833821;29;20033;-80
2023/08/14 00:32:00;;;;;;;6.45;5.80;;;18.10;99.90;;;;;;4876133;29;20048;-81
2023/08/14 00:34:25;;;;;;;8.52;5.47;;;18.10;99.90;;;;;;4982561;28;20044;-80
2023/08/14 00:36:51;;;;;;;6.35;5.57;;;18.10;99.90;;;;;;5007050;28;20028;-80
2023/08/14 00:39:17;;;;;;;12.45;6.15;;;18.20;99.90;;;;;;5025519;28;20039;-79
2023/08/14 00:41:44;;;;;;;6.78;5.70;;;18.20;99.90;;;;;;5055081;28;20118;-80
2023/08/14 00:44:10;;;;;;;7.57;5.32;;;18.10;99.90;;;;;;5045922;28;20056;-79
2023/08/14 00:46:36;;;;;;;5.82;4.78;;;18.10;99.90;;;;;;5062807;28;20056;-82
2023/08/14 00:49:01;;;;;;;6.53;5.53;;;17.90;99.90;;;;;;5062867;28;20035;-80
2023/08/14 00:51:27;;;;;;;7.85;5.40;;;18.00;99.90;;;;;;5067895;28;20187;-80
2023/08/14 00:53:54;;;;;;;5.63;5.03;;;18.10;99.90;;;;;;5080768;28;20040;-79
2023/08/14 00:56:20;;;;;;;6.00;5.40;;;17.90;99.90;;;;;;5063532;28;20028;-78
2023/08/14 00:58:47;;;;;;;7.70;6.07;;;18.10;99.90;;;;;;5080179;28;20048;-78
2023/08/14 01:01:13;;;;;;;8.23;6.38;;;18.00;99.90;;;;;;5056963;28;20098;-78
2023/08/14 01:03:40;;;;;;;7.70;6.32;;;18.00;99.90;;;;;;5043644;28;20346;-79
2023/08/14 01:06:05;;;;;;;8.65;5.35;;;18.00;99.90;;;;;;5045669;28;20028;-78
2023/08/14 01:08:32;;;;;;;6.68;5.15;;;18.10;99.90;;;;;;5073578;28;20028;-79
2023/08/14 01:11:21;;;;;;;8.98;5.80;;;17.80;99.90;;;;;;5054774;28;20077;-80
2023/08/14 01:14:23;;;;;;;8.63;5.68;;;17.90;99.90;;;;;;5075797;28;20326;-79
2023/08/14 01:16:56;;;;;;;6.78;6.13;;;17.70;99.90;;;;;;5070233;28;20315;-80
2023/08/14 01:19:27;;;;;;;5.68;5.07;;;17.80;99.90;;;;;;5081924;28;20044;-79
2023/08/14 01:22:27;;;;;;;7.03;6.38;;;17.90;99.90;;;;;;5075459;28;20219;-81
2023/08/14 01:25:22;;;;;;;6.95;6.25;;;17.80;99.90;;;;;;5058515;28;20619;-79
2023/08/14 01:27:52;;;;;;;;;;;17.80;99.90;;;;;;5053909;28;20107;-79
2023/08/14 01:30:20;;;;;;;5.85;4.90;;;17.60;99.90;;;;;;5036893;28;19920;-80
2023/08/14 01:32:46;;;;;;;7.85;6.70;;;17.90;99.90;;;;;;5058141;28;20036;-79
2023/08/14 01:35:20;;;;;;;9.95;6.55;;;17.90;99.90;;;;;;5076052;28;20051;-81
2023/08/14 01:38:04;;;;;;;6.07;5.47;;;17.80;99.90;;;;;;5059294;28;20206;-81
2023/08/14 01:41:04;;;;;;;8.98;6.13;;;17.60;99.90;;;;;;5068678;28;20040;-82
2023/08/14 01:43:52;;;;;;;5.57;5.03;;;17.70;99.90;;;;;;5058754;28;20541;-81
2023/08/14 01:46:35;;;;;;;7.53;6.45;;;17.80;99.90;;;;;;5093645;28;20095;-81
2023/08/14 01:49:36;;;;;;;7.93;5.95;;;17.00;99.90;;;;;;5066099;28;20040;-80
2023/08/14 01:52:49;;;;;;;7.72;5.60;;;18.40;99.90;;;;;;5057800;28;20066;-80
2023/08/14 01:55:24;;;;;;;7.28;6.30;;;18.00;99.90;;;;;;5052240;28;20048;-80
2023/08/14 01:59:10;;;;;;;5.82;5.25;;;17.60;99.90;;;;;;5059102;28;20039;-80
2023/08/14 02:02:22;;;;;;;9.23;5.40;;;17.70;99.90;;;;;;5049166;28;20086;-81
2023/08/14 02:04:48;;;;;;;6.57;5.10;;;16.30;99.90;;;;;;5065311;28;20319;-81
2023/08/14 02:07:14;;;;;;;5.93;5.30;;;17.80;99.90;;;;;;5076538;28;20024;-80
2023/08/14 02:17:39;;;;;;;6.35;5.38;;;17.30;99.90;;;;;;5010419;28;20044;-79
2023/08/14 02:20:46;;;;;;;6.10;5.03;;;17.90;99.90;;;;;;4931176;29;20043;-80
2023/08/14 02:23:20;;;;;;;6.88;5.53;;;16.40;99.90;;;;;;4979287;28;20047;-79
2023/08/14 02:33:35;;;;;;;7.20;5.38;;;17.40;99.90;;;;;;4961739;29;20053;-80
2023/08/14 02:36:07;;;;;;;6.00;5.40;;;17.50;99.90;;;;;;4920123;29;20043;-78
2023/08/14 02:38:33;;;;;;;7.18;5.43;;;17.40;99.90;;;;;;4947365;28;20185;-79
2023/08/14 02:41:06;;;;;;;7.30;5.75;;;17.60;99.90;;;;;;5040292;28;20050;-79
2023/08/14 02:43:32;;;;;;;10.07;6.50;;;17.60;99.90;;;;;;5083430;28;20036;-79
2023/08/14 02:45:58;;;;;;;7.55;6.10;;;17.60;99.90;;;;;;5062835;28;20063;-78
2023/08/14 02:48:23;;;;;;;6.80;6.10;;;17.60;99.90;;;;;;5018283;28;20055;-78
2023/08/14 02:50:49;;;;;;;9.18;5.88;;;17.40;99.90;;;;;;5077510;28;20028;-79
2023/08/14 02:53:15;;;;;;;6.70;6.00;;;17.60;99.90;;;;;;5047844;28;20039;-79
2023/08/14 02:55:41;;;;;;;8.65;6.97;;;17.70;99.90;;;;;;5081836;28;20028;-80
2023/08/14 02:58:06;;;;;;;7.53;6.65;;;17.70;99.90;;;;;;5048286;28;20035;-79
2023/08/14 03:00:32;;;;;;;9.18;6.35;;;17.60;99.90;;;;;;5032064;28;20047;-79
2023/08/14 03:02:58;;;;;;;9.35;6.45;;;17.50;99.90;;;;;;5084368;28;20051;-80
2023/08/14 03:05:26;;;;;;;10.63;6.93;;;17.50;99.90;;;;;;5067282;28;20047;-80
2023/08/14 03:07:52;;;;;;;11.95;6.57;;;17.70;99.90;;;;;;5064661;28;20016;-79
2023/08/14 03:10:18;;;;;;;7.35;6.55;;;17.70;99.90;;;;;;5048769;28;20031;-80
2023/08/14 03:12:44;;;;;;;8.50;7.00;;;17.60;99.90;;;;;;5059959;28;20028;-81
2023/08/14 03:15:10;;;;;;;11.68;6.95;;;17.50;99.90;;;;;;5042118;28;20067;-80
2023/08/14 03:17:38;;;;;;;8.77;7.05;;;17.70;99.90;;;;;;5063070;28;20032;-80
2023/08/14 03:20:05;;;;;;;10.23;8.32;;;17.70;99.90;;;;;;5073807;28;20032;-80
2023/08/14 03:22:31;;;;;;;11.70;7.85;;;17.50;99.90;;;;;;5042390;28;20032;-79
2023/08/14 03:24:56;;;;;;;8.38;7.57;;;17.70;99.90;;;;;;5044292;28;20078;-80
2023/08/14 03:27:22;;;;;;;10.73;7.50;;;17.50;99.90;;;;;;5058318;28;20050;-80
2023/08/14 03:29:47;;;;;;;13.20;8.60;;;17.60;99.90;;;;;;5037436;28;20038;-80
2023/08/14 03:32:13;;;;;;;13.57;8.55;;;17.50;99.90;;;;;;5076063;28;20087;-80
2023/08/14 03:34:39;;;;;;;10.43;6.82;;;17.60;99.90;;;;;;5053083;28;20333;-80
2023/08/14 03:37:04;;;;;;;8.10;7.30;;;17.70;99.90;;;;;;5049413;28;20032;-80
2023/08/14 03:39:30;;;;;;;9.93;8.05;;;17.70;99.90;;;;;;5050531;28;20035;-79
2023/08/14 03:41:59;;;;;;;10.43;7.93;;;17.60;99.90;;;;;;5057229;28;20439;-81
2023/08/14 03:44:25;;;;;;;14.30;8.90;;;17.40;99.90;;;;;;5048900;28;20241;-81
2023/08/14 03:46:50;;;;;;;11.02;7.68;;;17.60;99.90;;;;;;5047427;28;20047;-81
2023/08/14 03:49:16;;;;;;;9.35;7.75;;;17.60;99.90;;;;;;5080468;28;20037;-82
2023/08/14 03:51:44;;;;;;;11.98;8.43;;;17.60;99.90;;;;;;5036284;28;20032;-81
2023/08/14 03:54:10;;;;;;;10.85;7.15;;;17.70;99.90;;;;;;5058938;28;20023;-81
2023/08/14 03:56:36;;;;;;;9.73;8.13;;;17.70;99.90;;;;;;5091064;28;20078;-81
2023/08/14 03:59:01;;;;;;;11.75;8.48;;;17.40;99.90;;;;;;5062250;28;20103;-80
2023/08/14 04:01:27;;;;;;;9.68;8.68;;;17.60;99.90;;;;;;5080573;28;20060;-79
2023/08/14 04:03:56;;;;;;;11.93;8.63;;;17.60;99.90;;;;;;5050321;28;20077;-80
2023/08/14 04:06:47;;;;;;;9.40;8.43;;;17.60;99.90;;;;;;5066029;28;20329;-81
2023/08/14 04:09:13;;;;;;;12.63;8.88;;;17.60;99.90;;;;;;5066126;28;20038;-80
2023/08/14 04:11:44;;;;;;;11.05;8.95;;;17.60;99.90;;;;;;5079139;28;20055;-80
2023/08/14 04:14:10;;;;;;;14.30;8.93;;;17.70;99.90;;;;;;5047154;28;20139;-79
2023/08/14 04:16:43;;;;;;;12.05;8.15;;;17.60;99.90;;;;;;5045976;28;20044;-79
2023/08/14 04:19:17;;;;;;;9.00;7.90;;;17.60;99.90;;;;;;5049079;28;20330;-79
2023/08/14 04:21:43;;;;;;;13.25;9.48;;;17.70;99.90;;;;;;5062278;28;20036;-79
2023/08/14 04:24:09;;;;;;;11.10;9.30;;;17.60;99.90;;;;;;5063374;28;20027;-79
2023/08/14 04:26:36;;;;;;;10.30;9.07;;;17.70;99.90;;;;;;5065061;28;20095;-79
2023/08/14 04:29:06;;;;;;;10.73;9.27;;;17.50;99.90;;;;;;5082827;28;20082;-79
2023/08/14 04:31:38;;;;;;;11.07;9.60;;;17.60;99.90;;;;;;5082003;28;20031;-80
2023/08/14 04:34:05;;;;;;;12.27;9.57;;;17.60;99.90;;;;;;5042267;28;20032;-80
2023/08/14 04:36:32;;;;;;;12.88;9.25;;;17.60;99.90;;;;;;5050264;28;20047;-81
2023/08/14 04:38:58;;;;;;;12.82;9.93;;;17.50;99.90;;;;;;5046268;28;20150;-80
2023/08/14 04:41:33;;;;;;;11.52;9.50;;;17.70;99.90;;;;;;5063483;28;20033;-80
2023/08/14 04:44:01;;;;;;;12.50;9.55;;;17.50;99.90;;;;;;5079418;28;20095;-80
2023/08/14 04:46:35;;;;;;;13.02;9.90;;;17.90;99.90;;;;;;5032873;28;20127;-79
2023/08/14 04:49:05;;;;;;;12.40;9.95;;;17.80;99.90;;;;;;5062858;28;20155;-79
2023/08/14 04:51:31;;;;;;;15.75;10.60;;;18.00;99.90;;;;;;5043052;28;20044;-78
2023/08/14 04:53:58;;;;;;;12.95;9.63;;;18.00;99.90;;;;;;5042233;28;20028;-77
2023/08/14 04:56:25;;;;;;;19.50;11.80;;;18.00;99.90;;;;;;5045002;28;20328;-79
2023/08/14 04:58:52;;;;;;;13.02;9.95;;;18.10;99.90;;;;;;5061503;28;20033;-79
2023/08/14 05:01:17;;;;;;;13.48;10.68;;;18.10;99.90;;;;;;5043501;28;20219;-79
2023/08/14 05:03:43;;;;;;;12.70;9.70;;;18.20;99.90;;;;;;5044288;28;20021;-80
2023/08/14 05:06:09;;;;;;;10.63;9.55;;;18.10;99.90;;;;;;5062658;28;20099;-80
2023/08/14 05:08:35;;;;;;;12.18;10.05;;;18.30;99.90;;;;;;5043979;28;20122;-79
2023/08/14 05:11:00;;;;;;;12.07;9.80;;;18.00;99.90;;;;;;5045513;28;20031;-78
2023/08/14 05:13:26;;;;;;;13.63;10.73;;;18.10;99.90;;;;;;5042964;28;20028;-78
2023/08/14 05:15:52;;;;;;;10.30;9.27;;;18.40;99.90;;;;;;5050175;28;20040;-79
2023/08/14 05:18:19;;;;;;;14.18;10.65;;;18.20;99.90;;;;;;5030233;28;20028;-79
2023/08/14 05:20:45;;;;;;;13.40;10.35;;;18.40;99.90;;;;;;5050832;28;20040;-79
2023/08/14 05:23:12;;;;;;;12.85;9.50;;;18.10;99.90;;;;;;5066613;28;20039;-79
2023/08/14 05:25:37;;;;;;;12.40;9.57;;;18.10;99.90;;;;;;5045393;28;20075;-77
2023/08/14 05:28:04;;;;;;;14.45;9.90;;;18.50;99.90;;;;;;5042328;28;20059;-79
2023/08/14 05:30:30;;;;;;;10.15;8.77;;;18.40;99.90;;;;;;5033092;28;20099;-79
2023/08/14 05:32:56;;;;;;;11.30;9.27;;;18.50;99.90;;;;;;5031176;28;20447;-78
2023/08/14 05:35:25;;;;;;;10.02;8.95;;;18.40;99.90;;;;;;5037607;28;20065;-79
2023/08/14 05:37:58;;;;;;;11.65;8.93;;;18.30;99.90;;;;;;5062603;28;20047;-79
2023/08/14 05:40:25;;;;;;;12.85;8.60;;;18.60;99.90;;;;;;5049415;28;20044;-77
2023/08/14 05:43:04;;;;;;;9.68;8.57;;;18.60;99.90;;;;;;5032023;28;20059;-78
2023/08/14 05:45:34;;;;;;;11.02;9.40;;;18.60;99.90;;;;;;5083615;28;20055;-78
2023/08/14 05:48:05;;;;;;;10.55;8.27;;;18.60;99.90;;;;;;5065698;28;20517;-77
2023/08/14 05:50:31;;;;;;;12.30;9.32;;;18.60;99.90;;;;;;5047901;28;20350;-75
2023/08/14 05:53:03;;;;;;;12.10;9.70;;;18.70;99.90;;;;;;5048164;28;20318;-75
2023/08/14 05:55:30;;;;;;;14.43;9.65;;;18.90;99.90;;;;;;5073282;28;20070;-75
2023/08/14 05:57:56;;;;;;;12.50;10.13;;;19.00;99.90;;;;;;5060274;28;20036;-76
2023/08/14 06:00:24;;;;;;;10.32;9.23;;;19.10;99.90;;;;;;5064396;28;20284;-75
2023/08/14 06:02:51;;;;;;;10.38;9.13;;;19.10;99.90;;;;;;5079917;28;20040;-75
2023/08/14 06:05:17;;;;;;;10.43;8.88;;;19.30;99.90;;;;;;5075633;28;20032;-74
2023/08/14 06:07:42;;;;;;;12.00;8.85;;;19.20;99.90;;;;;;5064568;28;20326;-75
2023/08/14 06:10:08;;;;;;;9.13;8.23;;;19.40;99.90;;;;;;5066256;28;20038;-74
2023/08/14 06:12:35;;;;;;;14.02;10.20;;;19.00;99.90;;;;;;5058991;28;20313;-74
2023/08/14 06:15:02;;;;;;;10.48;7.88;;;19.20;99.90;;;;;;5079346;28;20043;-75
2023/08/14 06:17:28;;;;;;;12.50;9.07;;;19.20;99.90;;;;;;5056589;28;20052;-74
2023/08/14 06:19:54;;;;;;;10.77;8.20;;;19.20;99.90;;;;;;5066276;28;20147;-75
2023/08/14 06:22:20;;;;;;;12.10;8.48;;;19.20;99.90;;;;;;5065431;28;20319;-74
2023/08/14 06:24:46;;;;;;;13.60;8.23;;;19.20;99.90;;;;;;5065423;28;20035;-75
2023/08/14 06:27:11;;;;;;;9.82;8.55;;;19.70;99.90;;;;;;5066010;28;20329;-75
2023/08/14 06:29:37;;;;;;;10.23;7.70;;;19.40;99.90;;;;;;5048034;28;20066;-73
2023/08/14 06:32:05;;;;;;;10.88;7.90;;;19.90;99.90;;;;;;5067093;28;20253;-75
2023/08/14 06:34:31;;;;;;;8.90;6.97;;;19.50;99.90;;;;;;5049611;28;20078;-74
2023/08/14 06:36:56;;;;;;;10.35;7.65;;;19.80;99.90;;;;;;5070721;28;20040;-74
2023/08/14 06:39:22;;;;;;;8.38;6.63;;;20.00;99.90;;;;;;5039814;28;20032;-76
2023/08/14 06:41:48;;;;;;;12.50;7.72;;;20.00;99.90;;;;;;5063414;28;20332;-76
2023/08/14 06:44:14;;;;;;;13.27;8.10;;;19.90;99.90;;;;;;5056162;28;20030;-76
2023/08/14 06:46:40;;;;;;;10.15;7.82;;;20.10;99.90;;;;;;5063610;28;20341;-75
2023/08/14 06:49:05;;;;;;;8.82;7.35;;;19.90;99.90;;;;;;5066102;28;20044;-76
2023/08/14 06:51:32;;;;;;;11.13;7.70;;;19.90;99.90;;;;;;5080284;28;20418;-74
2023/08/14 06:53:57;;;;;;;8.60;7.72;;;19.80;99.90;;;;;;5079490;28;20032;-76
2023/08/14 06:56:24;;;;;;;10.68;7.80;;;20.20;99.90;;;;;;5083611;28;20372;-75
2023/08/14 06:58:49;;;;;;;8.98;7.38;;;20.30;99.90;;;;;;5065820;28;20111;-75
2023/08/14 07:01:15;;;;;;;8.52;5.72;;;20.30;99.90;;;;;;5067028;28;20024;-75
2023/08/14 07:03:41;;;;;;;10.73;7.13;;;20.10;99.90;;;;;;5082110;28;20024;-76
2023/08/14 07:06:07;;;;;;;9.05;6.55;;;20.10;99.90;;;;;;5064510;28;20042;-76
2023/08/14 07:08:32;;;;;;;8.40;6.90;;;20.00;99.90;;;;;;5062093;28;20012;-75
2023/08/14 07:10:58;;;;;;;9.07;6.90;;;20.50;99.90;;;;;;5078958;28;20112;-76
2023/08/14 07:13:24;;;;;;;9.20;6.30;;;20.20;99.90;;;;;;5041368;28;20318;-76
2023/08/14 07:15:50;;;;;;;9.70;7.47;;;20.20;99.90;;;;;;5028641;28;20103;-76
2023/08/14 07:18:18;;;;;;;9.02;6.53;;;20.30;99.90;;;;;;5079274;28;20043;-77
2023/08/14 07:20:47;;;;;;;9.52;6.97;;;20.70;99.90;;;;;;5052552;28;20247;-77
2023/08/14 07:23:17;;;;;;;6.70;5.90;;;20.60;99.90;;;;;;5078495;28;20032;-77
2023/08/14 07:25:44;;;;;;;7.93;6.03;;;20.60;99.90;;;;;;5062610;28;20103;-75
2023/08/14 07:28:09;;;;;;;9.15;6.07;;;20.60;99.90;;;;;;5070229;28;20101;-76
2023/08/14 07:30:36;;;;;;;7.35;5.57;;;20.50;99.90;;;;;;5060447;28;20020;-76
2023/08/14 07:33:02;;;;;;;6.40;5.40;;;20.80;99.90;;;;;;5065268;28;20447;-76
2023/08/14 07:35:27;;;;;;;10.20;5.75;;;20.90;99.90;;;;;;5082082;28;20184;-76
2023/08/14 07:37:53;;;;;;;6.88;5.53;;;20.90;99.90;;;;;;5047684;28;20065;-76
2023/08/14 07:40:19;;;;;;;7.65;5.55;;;20.90;99.90;;;;;;5077273;28;20043;-76
2023/08/14 07:42:45;;;;;;;6.53;5.55;;;21.30;99.90;;;;;;5065614;28;20028;-77
2023/08/14 07:45:10;;;;;;;6.95;4.95;;;21.30;99.90;;;;;;5077413;28;20044;-77
2023/08/14 07:47:36;;;;;;;6.47;5.25;;;21.50;99.90;;;;;;5061389;28;20045;-77
2023/08/14 07:50:02;;;;;;;7.30;4.78;;;21.40;99.90;;;;;;5062225;28;20052;-76
2023/08/14 07:52:28;;;;;;;8.20;4.72;;;21.90;99.90;;;;;;5064998;28;20020;-78
2023/08/14 07:54:56;;;;;;;6.90;4.70;;;21.60;99.90;;;;;;5081841;28;20028;-76
2023/08/14 07:57:23;;;;;;;6.22;4.35;;;21.70;99.90;;;;;;5062264;28;20052;-75
2023/08/14 07:59:49;;;;;;;7.53;4.43;;;21.70;99.90;;;;;;5075878;28;20052;-78
2023/08/14 08:02:15;;;;;;;5.97;4.78;;;21.80;99.90;;;;;;5061873;28;20133;-75
2023/08/14 08:04:41;;;;;;;5.88;4.22;;;21.80;99.90;;;;;;5068151;28;20214;-75
2023/08/14 08:07:08;;;;;;;5.85;4.43;;;22.00;99.90;;;;;;5046444;28;20044;-77
2023/08/14 08:09:34;;;;;;;5.80;4.55;;;22.00;99.90;;;;;;5064511;28;20032;-75
2023/08/14 08:11:59;;;;;;;7.38;4.57;;;22.00;99.90;;;;;;5074987;28;20087;-78
2023/08/14 08:14:26;;;;;;;8.85;5.10;;;22.30;99.90;;;;;;5060431;28;20326;-76
2023/08/14 08:16:51;;;;;;;6.68;4.07;;;22.20;99.90;;;;;;5077845;28;20031;-77
2023/08/14 08:19:18;;;;;;;6.22;4.35;;;22.30;99.90;;;;;;5063258;28;20183;-76
2023/08/14 08:21:43;;;;;;;7.65;4.05;;;22.40;99.90;;;;;;5067316;28;20048;-77
2023/08/14 08:24:09;;;;;;;7.03;4.78;;;22.60;99.90;;;;;;5079650;28;20038;-76
2023/08/14 08:26:36;;;;;;;6.63;3.70;;;22.80;99.90;;;;;;5064713;28;20086;-78
2023/08/14 08:29:02;;;;;;;8.52;4.18;;;22.50;99.90;;;;;;5081139;28;20320;-76
2023/08/14 08:31:28;;;;;;;8.00;4.00;;;22.60;99.90;;;;;;5082408;28;20358;-76
2023/08/14 08:33:54;;;;;;;4.15;3.20;;;22.60;99.90;;;;;;5065561;28;20042;-77
2023/08/14 08:36:19;;;;;;;5.25;3.28;;;23.00;99.90;;;;;;5035191;28;20035;-76
2023/08/14 08:38:46;;;;;;;5.40;3.70;;;23.00;99.90;;;;;;5057603;28;20055;-77
2023/08/14 08:41:14;;;;;;;4.57;3.35;;;23.00;99.90;;;;;;5081283;28;20055;-75
2023/08/14 08:43:41;;;;;;;5.03;3.28;;;23.30;99.90;;;;;;5066086;28;20100;-76
2023/08/14 08:46:12;;;;;;;6.78;3.40;;;23.40;99.90;;;;;;5082199;28;20078;-77
2023/08/14 08:48:42;;;;;;;6.47;3.50;;;23.30;99.90;;;;;;5086311;28;20036;-76
2023/08/14 08:51:09;;;;;;;4.97;3.47;;;23.60;99.90;;;;;;5067582;28;20036;-77
2023/08/14 08:53:36;;;;;;;4.97;3.40;;;23.60;99.90;;;;;;5087044;28;20198;-76
2023/08/14 08:56:03;;;;;;;5.75;3.25;;;23.80;99.90;;;;;;5083214;28;20073;-77
2023/08/14 08:58:30;;;;;;;5.18;2.83;;;23.80;99.90;;;;;;5053524;28;20036;-78
2023/08/14 09:00:56;;;;;;;4.00;3.15;;;24.00;99.90;;;;;;5052055;28;20299;-76
2023/08/14 09:03:22;;;;;;;3.17;2.65;;;24.00;99.90;;;;;;5085700;28;20112;-75
2023/08/14 09:05:48;;;;;;;4.38;2.60;;;24.10;99.90;;;;;;5069786;28;20040;-76
2023/08/14 09:08:14;;;;;;;8.00;3.00;;;24.10;99.90;;;;;;5085204;28;20099;-76
2023/08/14 09:10:40;;;;;;;5.60;3.20;;;24.10;99.90;;;;;;5086711;28;20035;-78
2023/08/14 09:13:06;;;;;;;5.93;3.03;;;24.10;99.90;;;;;;5083166;28;20330;-77
2023/08/14 09:15:32;;;;;;;4.57;2.53;;;24.00;99.90;;;;;;5086189;28;20042;-76
2023/08/14 09:17:58;;;;;;;3.42;2.20;;;23.90;99.90;;;;;;5065998;28;20027;-77
2023/08/14 09:20:24;;;;;;;5.75;2.60;;;24.00;99.90;;;;;;5086009;28;20345;-77
2023/08/14 09:22:56;;;;;;;6.85;2.63;;;24.00;99.90;;;;;;5069478;28;20042;-76
2023/08/14 09:25:22;;;;;;;5.85;2.70;;;24.00;99.90;;;;;;5085287;28;20035;-78
2023/08/14 09:27:47;;;;;;;5.03;3.17;;;24.50;99.90;;;;;;5034923;28;20282;-77
2023/08/14 09:30:13;;;;;;;7.47;3.00;;;24.50;99.90;;;;;;5064716;28;20052;-78
2023/08/14 09:32:39;;;;;;;5.20;3.10;;;24.60;99.90;;;;;;5062811;28;20434;-77
2023/08/14 09:35:06;;;;;;;4.20;2.38;;;24.60;99.90;;;;;;5035397;28;20073;-76
2023/08/14 09:37:32;;;;;;;4.43;2.83;;;25.00;99.90;;;;;;5081896;28;20044;-76
2023/08/14 09:40:07;;;;;;;3.85;2.63;;;25.10;99.90;;;;;;5076308;28;20068;-78
2023/08/14 09:42:33;;;;;;;5.63;2.47;;;25.20;99.90;;;;;;5074210;28;20055;-79
2023/08/14 09:45:00;;;;;;;3.60;2.30;;;25.50;99.90;;;;;;5081782;28;20040;-76
2023/08/14 09:47:26;;;;;;;5.78;2.50;;;25.40;99.90;;;;;;5082039;28;20086;-76
2023/08/14 09:49:55;;;;;;;2.80;1.75;;;25.90;99.90;;;;;;5084057;28;20036;-77
2023/08/14 09:52:21;;;;;;;3.78;2.00;;;26.00;99.90;;;;;;5080592;28;20036;-78
2023/08/14 09:54:48;;;;;;;3.60;1.65;;;26.30;99.90;;;;;;5085585;28;20054;-74
2023/08/14 09:57:14;;;;;;;7.38;1.95;;;26.10;99.90;;;;;;5083807;28;20103;-77
2023/08/14 09:59:40;;;;;;;2.88;1.70;;;26.10;99.90;;;;;;5068328;28;20031;-79
2023/08/14 10:02:15;;;;;;;2.60;1.70;;;26.40;99.90;;;;;;5084230;28;20356;-78
2023/08/14 10:04:45;;;;;;;4.60;2.05;;;26.60;99.90;;;;;;5085622;28;20024;-78
2023/08/14 10:07:12;;;;;;;3.97;2.05;;;27.00;99.90;;;;;;5064300;28;20063;-81
2023/08/14 10:09:43;;;;;;;3.45;1.70;;;27.30;99.90;;;;;;5052203;28;20039;-78
2023/08/14 10:12:12;;;;;;;2.88;1.40;;;27.10;99.90;;;;;;5068364;28;20032;-77
2023/08/14 10:14:40;;;;;;;3.05;1.40;;;27.10;99.90;;;;;;5085388;28;20089;-78
2023/08/14 10:17:12;;;;;;;5.07;2.20;;;26.90;99.90;;;;;;5080168;28;20028;-78
2023/08/14 10:19:39;;;;;;;5.03;1.88;;;27.00;99.90;;;;;;5082894;28;20171;-79
2023/08/14 10:22:06;;;;;;;5.20;1.73;;;27.00;99.90;;;;;;5082334;28;20251;-72
2023/08/14 10:24:36;;;;;;;3.47;1.48;;;27.00;99.90;;;;;;5083767;28;20094;-80
2023/08/14 10:27:04;;;;;;;4.22;1.77;;;27.00;99.90;;;;;;5066845;28;20331;-78
2023/08/14 10:29:31;;;;;;;4.82;1.70;;;27.10;99.90;;;;;;5084595;28;20290;-78
2023/08/14 10:31:58;;;;;;;2.45;1.40;;;27.50;99.90;;;;;;5067880;28;20028;-79
2023/08/14 10:34:25;;;;;;;12.40;4.50;;;28.00;99.90;;;;;;5068146;28;20039;-79
2023/08/14 10:36:52;;;;;;;4.45;1.98;;;28.80;99.90;;;;;;5083389;28;20071;-79
2023/08/14 10:39:19;;;;;;;4.70;1.60;;;28.30;99.90;;;;;;5080136;28;20032;-78
2023/08/14 10:41:45;;;;;;;8.35;2.45;;;27.80;99.90;;;;;;5081718;28;20019;-77
2023/08/14 10:44:11;;;;;;;2.85;1.38;;;27.80;99.90;;;;;;5081647;28;20042;-81
2023/08/14 10:46:44;;;;;;;3.45;1.40;;;28.20;99.90;;;;;;5053503;28;20218;-79
2023/08/14 10:49:13;;;;;;;2.63;1.27;;;27.90;99.90;;;;;;5050884;28;20040;-79
2023/08/14 10:51:42;;;;;;;3.63;1.65;;;27.90;99.90;;;;;;5056244;28;20028;-80
2023/08/14 10:54:11;;;;;;;3.53;1.70;;;27.40;99.90;;;;;;5068281;28;20036;-79
2023/08/14 10:56:48;;;;;;;2.38;1.48;;;27.50;99.90;;;;;;5081711;28;20087;-80
2023/08/14 10:59:28;;;;;;;2.50;1.38;;;27.60;99.90;;;;;;5031726;28;20040;-80
2023/08/14 11:02:05;;;;;;;4.22;1.98;;;28.00;99.90;;;;;;5046913;28;20028;-78
2023/08/14 11:04:35;;;;;;;3.42;1.45;;;27.70;99.90;;;;;;5054427;28;20031;-80
2023/08/14 11:07:05;;;;;;;3.22;1.45;;;28.00;99.90;;;;;;5066038;28;20478;-77
2023/08/14 11:09:37;;;;;;;2.38;1.25;;;28.40;99.90;;;;;;5082752;28;20324;-77
2023/08/14 11:12:10;;;;;;;3.83;1.58;;;28.60;99.90;;;;;;5031613;28;20040;-77
2023/08/14 11:14:38;;;;;;;2.15;1.60;;;28.70;99.90;;;;;;5083895;28;20035;-77
2023/08/14 11:17:04;;;;;;;2.92;1.50;;;28.70;99.90;;;;;;5065357;28;20094;-80
2023/08/14 11:19:33;;;;;;;2.50;1.55;;;28.90;99.90;;;;;;5066510;28;20039;-81
2023/08/14 11:21:59;;;;;;;3.20;1.60;;;28.60;99.90;;;;;;5049089;28;20065;-79
2023/08/14 11:24:25;;;;;;;3.47;1.30;;;28.50;99.90;;;;;;5063664;28;20027;-78
2023/08/14 11:26:52;;;;;;;3.85;1.60;;;28.60;99.90;;;;;;5083907;28;20036;-75
2023/08/14 11:29:18;;;;;;;3.30;1.70;;;28.20;85.20;;;;;;5082716;28;20036;-76
2023/08/14 11:31:44;;;;;;;2.72;1.88;;;28.60;99.90;;;;;;5073698;28;20043;-73
2023/08/14 11:34:10;;;;;;;3.28;1.80;;;28.30;99.90;;;;;;5049066;28;20028;-72
2023/08/14 11:36:40;;;;;;;3.90;1.63;;;28.60;99.90;;;;;;5077968;28;20032;-74
2023/08/14 11:39:06;;;;;;;3.30;1.52;;;28.90;99.90;;;;;;5063585;28;20103;-75
2023/08/14 11:41:35;;;;;;;3.83;1.77;;;28.80;1.00;;;;;;5037706;28;20043;-71
2023/08/14 11:44:02;;;;;;;3.70;1.65;;;28.90;9.30;;;;;;5059782;28;20390;-74
2023/08/14 11:46:28;;;;;;;3.35;1.77;;;29.00;7.20;;;;;;5076084;28;20051;-74
2023/08/14 11:48:54;;;;;;;3.95;1.55;;;28.80;99.90;;;;;;5078006;28;20036;-75
2023/08/14 11:51:20;;;;;;;2.53;1.48;;;29.20;99.90;;;;;;5072289;28;20100;-74
2023/08/14 11:53:46;;;;;;;3.10;1.63;;;29.30;1.00;;;;;;5060693;28;20662;-74
2023/08/14 11:56:12;;;;;;;3.63;1.70;;;29.00;1.00;;;;;;5078428;28;20132;-71
2023/08/14 11:58:39;;;;;;;1.88;1.33;;;29.30;95.50;;;;;;5074991;28;21199;-72
2023/08/14 12:01:05;;;;;;;1.63;1.40;;;29.10;99.90;;;;;;5057522;28;20470;-80
2023/08/14 12:03:31;;;;;;;2.17;1.40;;;29.30;99.90;;;;;;5078346;28;20038;-71
2023/08/14 12:06:02;;;;;;;3.38;1.80;;;29.10;14.40;;;;;;5080302;28;20067;-71
2023/08/14 12:08:29;;;;;;;2.80;1.60;;;29.10;29.10;;;;;;5063512;28;20023;-74
2023/08/14 12:10:55;;;;;;;1.98;1.38;;;29.00;18.60;;;;;;5065722;28;20028;-75
2023/08/14 12:13:22;;;;;;;4.10;1.65;;;29.10;99.90;;;;;;5039610;28;20230;-79
2023/08/14 12:15:50;;;;;;;3.13;1.70;;;29.10;1.00;;;;;;5073910;28;20100;-82
2023/08/14 12:18:25;;;;;;;6.55;1.58;;;29.00;1.00;;;;;;5075844;28;20051;-77
2023/08/14 12:20:54;;;;;;;4.93;1.67;;;28.70;54.70;;;;;;5077843;28;20055;-78
2023/08/14 12:23:24;;;;;;;4.28;1.60;;;28.40;99.90;;;;;;5056713;28;20271;-79
2023/08/14 12:25:52;;;;;;;3.72;1.77;;;28.50;99.90;;;;;;5059690;28;20099;-84
2023/08/14 12:28:19;;;;;;;3.92;1.60;;;28.60;99.90;;;;;;5064238;28;20040;-80
2023/08/14 12:30:46;;;;;;;3.53;1.60;;;28.60;1.00;;;;;;5049762;28;20068;-74
2023/08/14 12:33:15;;;;;;;3.58;1.67;;;28.50;1.00;;;;;;5070623;28;20031;-74
2023/08/14 12:35:41;;;;;;;4.28;1.92;;;29.00;86.90;;;;;;5063998;28;20032;-77
2023/08/14 12:38:07;;;;;;;2.83;1.80;;;29.50;34.60;;;;;;5077800;28;20379;-73
2023/08/14 12:40:33;;;;;;;2.08;1.30;;;29.90;66.10;;;;;;5051869;28;20033;-73
2023/08/14 12:43:00;;;;;;;2.40;1.73;;;29.30;96.10;;;;;;5103026;28;20245;-75
2023/08/14 12:45:26;;;;;;;3.30;1.80;;;29.20;99.90;;;;;;5059911;28;20036;-75
2023/08/14 12:47:51;;;;;;;4.22;1.80;;;29.00;99.90;;;;;;5048768;28;20058;-74
2023/08/14 12:50:17;;;;;;;4.05;1.80;;;28.70;1.00;;;;;;5064412;28;20040;-75
2023/08/14 12:52:43;;;;;;;4.35;1.70;;;28.80;99.90;;;;;;5109861;28;20032;-76
2023/08/14 12:55:09;;;;;;;4.47;1.55;;;28.70;1.00;;;;;;5079953;28;20028;-76
2023/08/14 12:57:35;;;;;;;4.00;1.95;;;29.20;51.30;;;;;;5070130;28;20028;-76
2023/08/14 13:00:02;;;;;;;3.53;1.38;;;29.50;99.90;;;;;;5082499;28;20077;-76
2023/08/14 13:02:27;;;;;;;4.28;2.25;;;29.50;94.90;;;;;;5081554;28;20055;-75
2023/08/14 13:04:54;;;;;;;3.88;1.88;;;29.60;99.90;;;;;;5064984;28;20036;-74
2023/08/14 13:07:20;;;;;;;4.03;1.60;;;29.30;99.90;;;;;;5063166;28;20056;-75
2023/08/14 13:09:46;;;;;;;3.03;1.60;;;29.40;99.90;;;;;;5063556;28;20016;-77
2023/08/14 13:12:12;;;;;;;3.85;1.88;;;29.10;99.90;;;;;;5063285;28;20085;-76
2023/08/14 13:14:37;;;;;;;3.63;1.50;;;29.30;1.00;;;;;;5054151;28;20042;-77
2023/08/14 13:17:03;;;;;;;3.13;1.55;;;29.00;1.00;;;;;;5054169;28;20031;-77